Terminal Aerodrome Forecast
Issued by NWS Jackson, KY

Home | Current Version | Previous Version | Text Only | Print | Product List | Glossary On
Versions: 1 2 3 4 5 6 7 8 9 10 11 12 13 14 15 16 17 18
000
FTUS43 KJKL 281100
TAFJKL
TAF
KJKL 281139Z 2812/2912 20004KT P6SM SCT250
     FM281600 22008G16KT P6SM FEW050 BKN250
     FM290000 25006KT 6SM -SHRA VCTS SCT030CB OVC050
     FM290200 29003KT P6SM -SHRA SCT025 OVC050=

USA.gov is the U.S. government's official web portal to all federal, state and local government web resources and services.